North Lake, Wisconsin
Current Conditions -  °F | °C
As of 9:15 PM on Thursday 27 Nov 2014 (Local Time) from KUES Reporting Station
Clear Clear  
Wind Chill: 10°   Ceiling: Unl
Heat Index: 10°   Visibility: 10mi
Dew Point:   Wind: 3mph
Humidity: 85%   Direction: 290°WNW
Pressure: 30.38"   Gusts: NA
Location:  43.16°N, 88.37°W
Report Text: KUES 280315Z AUTO 29003KT 10SM CLR M12/M14 A3038 RMK AO2
Loading
Personal Weather Stations






























Interactive Weather Map New forecast layout! Learn more

10-Day Weather Forecast

Advertisements
Track Severe Weather on mobile